createdAt,value
2019-01-24T00:00:09.296Z,1004.56
2019-01-24T00:01:09.503Z,1004.55
2019-01-24T00:02:09.620Z,1004.53
2019-01-24T00:03:09.825Z,1004.52
2019-01-24T00:04:13.125Z,1004.57
2019-01-24T00:05:11.158Z,1004.60
2019-01-24T00:06:10.374Z,1004.62
2019-01-24T00:07:10.481Z,1004.59
2019-01-24T00:08:10.669Z,1004.56
2019-01-24T00:09:10.850Z,1004.61
2019-01-24T00:10:11.001Z,1004.62
2019-01-24T00:11:11.205Z,1004.60
2019-01-24T00:12:11.471Z,1004.64
2019-01-24T00:13:11.543Z,1004.66
2019-01-24T00:14:11.709Z,1004.65
2019-01-24T00:15:11.852Z,1004.66
2019-01-24T00:16:12.029Z,1004.62
2019-01-24T00:17:12.189Z,1004.62
2019-01-24T00:18:12.359Z,1004.67
2019-01-24T00:19:12.545Z,1004.72
2019-01-24T00:20:12.755Z,1004.70
2019-01-24T00:21:12.887Z,1004.69
2019-01-24T00:22:13.030Z,1004.74
2019-01-24T00:23:13.217Z,1004.68
2019-01-24T00:24:13.597Z,1004.68
2019-01-24T00:25:13.543Z,1004.71
2019-01-24T00:26:13.737Z,1004.69
2019-01-24T00:27:13.900Z,1004.69
2019-01-24T00:28:14.146Z,1004.73
2019-01-24T00:29:14.220Z,1004.76
2019-01-24T00:30:14.367Z,1004.76
2019-01-24T00:31:14.575Z,1004.76
2019-01-24T00:32:14.733Z,1004.79
2019-01-24T00:33:14.898Z,1004.80
2019-01-24T00:34:15.090Z,1004.72
2019-01-24T00:35:15.239Z,1004.77
2019-01-24T00:36:15.439Z,1004.79
2019-01-24T00:37:15.646Z,1004.77
2019-01-24T00:38:15.772Z,1004.79
2019-01-24T00:39:15.943Z,1004.79
2019-01-24T00:40:16.092Z,1004.71
2019-01-24T00:41:16.250Z,1004.76
2019-01-24T00:42:16.433Z,1004.78
2019-01-24T00:43:16.619Z,1004.80
2019-01-24T00:44:16.827Z,1004.80
2019-01-24T00:45:17.035Z,1004.88
2019-01-24T00:46:17.095Z,1004.80
2019-01-24T00:47:17.287Z,1004.85
2019-01-24T00:48:17.475Z,1004.81
2019-01-24T00:49:17.646Z,1004.86
2019-01-24T00:50:17.794Z,1004.86
2019-01-24T00:51:17.970Z,1004.90
2019-01-24T00:52:18.140Z,1004.88
2019-01-24T00:53:18.459Z,1004.88
2019-01-24T00:54:18.489Z,1004.94
2019-01-24T00:55:18.655Z,1004.88
2019-01-24T00:56:18.826Z,1004.93
2019-01-24T00:57:18.994Z,1004.86
2019-01-24T00:58:19.180Z,1004.92
2019-01-24T00:59:19.349Z,1004.99
2019-01-24T01:00:19.513Z,1004.98
2019-01-24T01:01:19.701Z,1004.95
2019-01-24T01:02:19.840Z,1004.98
2019-01-24T01:03:19.985Z,1004.98
2019-01-24T01:04:20.189Z,1004.93
2019-01-24T01:05:20.336Z,1004.98
2019-01-24T01:06:20.511Z,1004.97
2019-01-24T01:07:20.690Z,1004.97
2019-01-24T01:08:20.842Z,1004.94
2019-01-24T01:09:21.076Z,1004.94
2019-01-24T01:10:21.247Z,1004.96
2019-01-24T01:11:21.378Z,1004.94
2019-01-24T01:12:21.553Z,1004.96
2019-01-24T01:13:21.705Z,1004.98
2019-01-24T01:14:21.878Z,1004.98
2019-01-24T01:15:22.029Z,1005.01
2019-01-24T01:16:22.230Z,1005.03
2019-01-24T01:17:22.417Z,1005.02
2019-01-24T01:18:22.695Z,1005.05
2019-01-24T01:19:22.723Z,1005.05
2019-01-24T01:20:22.892Z,1005.04
2019-01-24T01:21:23.074Z,1005.07
2019-01-24T01:22:23.313Z,1005.06
2019-01-24T01:23:23.415Z,1005.16
2019-01-24T01:24:23.599Z,1005.17
2019-01-24T01:25:23.753Z,1005.15
2019-01-24T01:26:24.022Z,1005.18
2019-01-24T01:27:24.112Z,1005.20
2019-01-24T01:28:24.260Z,1005.16
2019-01-24T01:29:24.454Z,1005.14
2019-01-24T01:30:24.595Z,1005.17
2019-01-24T01:31:24.773Z,1005.18
2019-01-24T01:32:24.981Z,1005.14
2019-01-24T01:33:25.132Z,1005.17
2019-01-24T01:34:25.339Z,1005.20
2019-01-24T01:35:25.421Z,1005.19
2019-01-24T01:36:25.597Z,1005.21
2019-01-24T01:37:25.797Z,1005.23
2019-01-24T01:38:25.969Z,1005.16
2019-01-24T01:39:26.131Z,1005.22
2019-01-24T01:40:26.291Z,1005.21
2019-01-24T01:41:26.461Z,1005.22
2019-01-24T01:42:26.703Z,1005.24
2019-01-24T01:43:26.797Z,1005.20
2019-01-24T01:44:26.971Z,1005.24
2019-01-24T01:45:27.123Z,1005.22
2019-01-24T01:46:27.293Z,1005.26
2019-01-24T01:47:27.486Z,1005.23
2019-01-24T01:48:27.636Z,1005.29
2019-01-24T01:49:27.813Z,1005.23
2019-01-24T01:50:28.008Z,1005.25
2019-01-24T01:51:28.253Z,1005.28
2019-01-24T01:52:28.330Z,1005.25
2019-01-24T01:53:28.492Z,1005.24
2019-01-24T01:54:28.673Z,1005.27
2019-01-24T01:55:28.848Z,1005.23
2019-01-24T01:56:29.008Z,1005.21
2019-01-24T01:57:29.204Z,1005.37
2019-01-24T01:58:29.374Z,1005.33
2019-01-24T01:59:29.634Z,1005.27
2019-01-24T02:00:29.943Z,1005.26
2019-01-24T02:01:29.866Z,1005.31
2019-01-24T02:02:30.051Z,1005.28
2019-01-24T02:03:30.206Z,1005.29
2019-01-24T02:04:30.356Z,1005.27
2019-01-24T02:05:30.555Z,1005.29
2019-01-24T02:06:30.705Z,1005.20
2019-01-24T02:07:31.002Z,1005.21
2019-01-24T02:08:31.049Z,1005.22
2019-01-24T02:09:31.197Z,1005.20
2019-01-24T02:10:31.396Z,1005.23
2019-01-24T02:11:31.550Z,1005.18
2019-01-24T02:12:31.737Z,1005.33
2019-01-24T02:13:31.897Z,1005.28
2019-01-24T02:14:32.049Z,1005.28
2019-01-24T02:15:32.264Z,1005.26
2019-01-24T02:16:32.382Z,1005.27
2019-01-24T02:17:32.571Z,1005.28
2019-01-24T02:18:32.729Z,1005.25
2019-01-24T02:19:32.898Z,1005.20
2019-01-24T02:20:33.084Z,1005.28
2019-01-24T02:21:33.220Z,1005.28
2019-01-24T02:22:33.415Z,1005.30
2019-01-24T02:23:33.630Z,1005.26
2019-01-24T02:24:33.749Z,1005.25
2019-01-24T02:25:33.960Z,1005.26
2019-01-24T02:26:34.101Z,1005.24
2019-01-24T02:27:34.274Z,1005.29
2019-01-24T02:28:34.457Z,1005.20
2019-01-24T02:29:34.629Z,1005.20
2019-01-24T02:30:34.800Z,1005.17
2019-01-24T02:31:35.202Z,1005.17
2019-01-24T02:32:35.224Z,1005.15
2019-01-24T02:33:35.285Z,1005.12
2019-01-24T02:34:35.452Z,1005.19
2019-01-24T02:35:35.635Z,1005.19
2019-01-24T02:36:35.786Z,1005.24
2019-01-24T02:37:35.982Z,1005.16
2019-01-24T02:38:36.118Z,1005.16
2019-01-24T02:39:36.293Z,1005.25
2019-01-24T02:40:36.585Z,1005.26
2019-01-24T02:41:36.620Z,1005.24
2019-01-24T02:42:36.807Z,1005.24
2019-01-24T02:43:36.967Z,1005.27
2019-01-24T02:44:37.151Z,1005.30
2019-01-24T02:45:37.316Z,1005.29
2019-01-24T02:46:37.482Z,1005.28
2019-01-24T02:47:37.682Z,1005.31
2019-01-24T02:48:37.858Z,1005.32
2019-01-24T02:49:37.967Z,1005.41
2019-01-24T02:50:38.153Z,1005.36
2019-01-24T02:51:38.305Z,1005.36
2019-01-24T02:52:38.493Z,1005.34
2019-01-24T02:53:38.641Z,1005.32
2019-01-24T02:54:38.812Z,1005.36
2019-01-24T02:55:38.998Z,1005.36
2019-01-24T02:56:39.201Z,1005.36
2019-01-24T02:57:39.314Z,1005.36
2019-01-24T02:58:39.475Z,1005.39
2019-01-24T02:59:39.659Z,1005.40
2019-01-24T03:00:39.807Z,1005.45
2019-01-24T03:01:39.980Z,1005.45
2019-01-24T03:02:40.151Z,1005.36
2019-01-24T03:03:40.326Z,1005.34
2019-01-24T03:04:40.561Z,1005.39
2019-01-24T03:05:40.693Z,1005.33
2019-01-24T03:06:40.827Z,1005.35
2019-01-24T03:07:40.999Z,1005.31
2019-01-24T03:08:41.185Z,1005.35
2019-01-24T03:09:41.371Z,1005.30
2019-01-24T03:10:41.532Z,1005.37
2019-01-24T03:11:41.677Z,1005.35
2019-01-24T03:12:41.896Z,1005.37
2019-01-24T03:13:42.176Z,1005.36
2019-01-24T03:14:42.238Z,1005.32
2019-01-24T03:15:42.413Z,1005.30
2019-01-24T03:16:42.546Z,1005.30
2019-01-24T03:17:42.731Z,1005.27
2019-01-24T03:18:42.919Z,1005.26
2019-01-24T03:19:43.072Z,1005.26
2019-01-24T03:20:43.252Z,1005.27
2019-01-24T03:21:43.536Z,1005.28
2019-01-24T03:22:43.583Z,1005.22
2019-01-24T03:23:43.757Z,1005.32
2019-01-24T03:24:43.924Z,1005.30
2019-01-24T03:25:44.104Z,1005.26
2019-01-24T03:26:44.256Z,1005.32
2019-01-24T03:27:44.410Z,1005.28
2019-01-24T03:28:44.607Z,1005.28
2019-01-24T03:29:44.864Z,1005.29
2019-01-24T03:30:44.928Z,1005.29
2019-01-24T03:31:45.086Z,1005.33
2019-01-24T03:32:45.256Z,1005.32
2019-01-24T03:33:45.439Z,1005.28
2019-01-24T03:34:45.606Z,1005.30
2019-01-24T03:35:45.777Z,1005.32
2019-01-24T03:36:45.922Z,1005.37
2019-01-24T03:37:46.143Z,1005.37
2019-01-24T03:38:46.242Z,1005.40
2019-01-24T03:39:46.419Z,1005.39
2019-01-24T03:40:46.612Z,1005.43
2019-01-24T03:41:46.768Z,1005.39
2019-01-24T03:42:46.928Z,1005.45
2019-01-24T03:43:47.129Z,1005.43
2019-01-24T03:44:47.288Z,1005.41
2019-01-24T03:45:47.476Z,1005.41
2019-01-24T03:46:47.674Z,1005.44
2019-01-24T03:47:47.785Z,1005.43
2019-01-24T03:48:47.967Z,1005.43
2019-01-24T03:49:48.128Z,1005.45
2019-01-24T03:50:48.289Z,1005.46
2019-01-24T03:51:48.453Z,1005.50
2019-01-24T03:52:48.628Z,1005.49
2019-01-24T03:53:48.820Z,1005.52
2019-01-24T03:54:49.081Z,1005.48
2019-01-24T03:55:49.144Z,1005.57
2019-01-24T03:56:49.306Z,1005.63
2019-01-24T03:57:49.475Z,1005.66
2019-01-24T03:58:49.656Z,1005.62
2019-01-24T03:59:49.828Z,1005.65
2019-01-24T04:00:50.012Z,1005.68
2019-01-24T04:01:50.140Z,1005.68
2019-01-24T04:02:50.485Z,1005.64
2019-01-24T04:03:50.505Z,1005.66
2019-01-24T04:04:50.678Z,1005.67
2019-01-24T04:05:50.854Z,1005.61
2019-01-24T04:06:50.982Z,1005.65
2019-01-24T04:07:51.167Z,1005.63
2019-01-24T04:08:51.367Z,1005.61
2019-01-24T04:09:51.534Z,1005.61
2019-01-24T04:10:51.723Z,1005.64
2019-01-24T04:11:51.844Z,1005.58
2019-01-24T04:12:52.004Z,1005.64
2019-01-24T04:13:52.205Z,1005.58
2019-01-24T04:14:52.373Z,1005.63
2019-01-24T04:15:52.527Z,1005.51
2019-01-24T04:16:52.715Z,1005.65
2019-01-24T04:17:52.879Z,1005.61
2019-01-24T04:18:53.095Z,1005.65
2019-01-24T04:19:53.274Z,1005.63
2019-01-24T04:20:53.394Z,1005.64
2019-01-24T04:21:53.574Z,1005.67
2019-01-24T04:22:53.737Z,1005.62
2019-01-24T04:23:53.924Z,1005.68
2019-01-24T04:24:54.076Z,1005.60
2019-01-24T04:25:54.241Z,1005.65
2019-01-24T04:26:54.463Z,1005.67
2019-01-24T04:27:54.680Z,1005.66
2019-01-24T04:28:54.757Z,1005.71
2019-01-24T04:29:54.916Z,1005.68
2019-01-24T04:30:55.113Z,1005.72
2019-01-24T04:31:55.280Z,1005.71
2019-01-24T04:32:55.432Z,1005.69
2019-01-24T04:33:55.618Z,1005.68
2019-01-24T04:34:55.769Z,1005.70
2019-01-24T04:35:56.029Z,1005.70
2019-01-24T04:36:56.124Z,1005.70
2019-01-24T04:37:56.272Z,1005.71
2019-01-24T04:38:56.465Z,1005.72
2019-01-24T04:39:56.598Z,1005.70
2019-01-24T04:40:56.808Z,1005.75
2019-01-24T04:41:56.966Z,1005.73
2019-01-24T04:42:57.119Z,1005.74
2019-01-24T04:43:57.375Z,1005.73
2019-01-24T04:44:57.443Z,1005.72
2019-01-24T04:45:57.618Z,1005.71
2019-01-24T04:46:57.801Z,1005.72
2019-01-24T04:47:57.956Z,1005.72
2019-01-24T04:48:58.143Z,1005.73
2019-01-24T04:49:58.292Z,1005.75
2019-01-24T04:50:58.478Z,1005.73
2019-01-24T04:51:58.663Z,1005.73
2019-01-24T04:52:58.784Z,1005.74
2019-01-24T04:53:58.978Z,1005.79
2019-01-24T04:54:59.134Z,1005.82
2019-01-24T04:55:59.290Z,1005.84
2019-01-24T04:56:59.484Z,1005.82
2019-01-24T04:57:59.628Z,1005.85
2019-01-24T04:58:59.829Z,1005.86
2019-01-24T05:00:00.197Z,1005.93
2019-01-24T05:01:00.243Z,1005.99
2019-01-24T05:02:00.348Z,1005.93
2019-01-24T05:03:00.487Z,1005.95
2019-01-24T05:04:00.684Z,1005.98
2019-01-24T05:05:00.854Z,1005.95
2019-01-24T05:06:01.028Z,1006.02
2019-01-24T05:07:01.208Z,1006.01
2019-01-24T05:08:01.366Z,1006.04
2019-01-24T05:09:01.622Z,1006.05
2019-01-24T05:10:02.307Z,1006.08
2019-01-24T05:11:01.883Z,1006.09
2019-01-24T05:12:02.051Z,1006.07
2019-01-24T05:13:02.200Z,1006.04
2019-01-24T05:14:02.353Z,1006.09
2019-01-24T05:15:02.518Z,1006.07
2019-01-24T05:16:02.721Z,1006.11
2019-01-24T05:17:03.252Z,1006.18
2019-01-24T05:18:03.042Z,1006.15
2019-01-24T05:19:03.196Z,1006.11
2019-01-24T05:20:03.414Z,1006.09
2019-01-24T05:21:03.597Z,1006.10
2019-01-24T05:22:03.766Z,1006.11
2019-01-24T05:23:03.911Z,1006.13
2019-01-24T05:24:04.088Z,1006.14
2019-01-24T05:25:04.284Z,1006.09
2019-01-24T05:26:04.447Z,1006.11
2019-01-24T05:27:04.622Z,1006.15
2019-01-24T05:28:04.773Z,1006.12
2019-01-24T05:29:04.941Z,1006.10
2019-01-24T05:30:05.128Z,1006.06
2019-01-24T05:31:05.267Z,1006.02
2019-01-24T05:32:05.464Z,1006.05
2019-01-24T05:33:05.687Z,1006.07
2019-01-24T05:34:05.782Z,1006.11
2019-01-24T05:35:05.976Z,1006.10
2019-01-24T05:36:06.145Z,1006.16
2019-01-24T05:37:06.305Z,1006.20
2019-01-24T05:38:06.470Z,1006.12
2019-01-24T05:39:06.634Z,1006.21
2019-01-24T05:40:06.828Z,1006.09
2019-01-24T05:41:07.016Z,1006.09
2019-01-24T05:42:07.245Z,1006.13
2019-01-24T05:43:07.318Z,1006.11
2019-01-24T05:44:07.488Z,1006.14
2019-01-24T05:45:07.676Z,1006.15
2019-01-24T05:46:07.836Z,1006.15
2019-01-24T05:47:08.014Z,1006.18
2019-01-24T05:48:08.151Z,1006.20
2019-01-24T05:49:08.336Z,1006.15
2019-01-24T05:50:08.663Z,1006.18
2019-01-24T05:51:08.714Z,1006.17
2019-01-24T05:52:08.872Z,1006.19
2019-01-24T05:53:09.043Z,1006.21
2019-01-24T05:54:09.197Z,1006.21
2019-01-24T05:55:09.387Z,1006.22
2019-01-24T05:56:09.561Z,1006.22
2019-01-24T05:57:09.727Z,1006.22
2019-01-24T05:58:09.908Z,1006.29
2019-01-24T05:59:10.044Z,1006.29
2019-01-24T06:00:10.227Z,1006.35
2019-01-24T06:01:10.396Z,1006.34
2019-01-24T06:02:10.558Z,1006.34
2019-01-24T06:03:10.718Z,1006.33
2019-01-24T06:04:10.866Z,1006.33
2019-01-24T06:05:11.075Z,1006.36
2019-01-24T06:06:11.308Z,1006.33
2019-01-24T06:07:11.411Z,1006.31
2019-01-24T06:08:11.568Z,1006.34
2019-01-24T06:09:11.737Z,1006.29
2019-01-24T06:10:11.904Z,1006.38
2019-01-24T06:11:12.103Z,1006.34
2019-01-24T06:12:12.257Z,1006.39
2019-01-24T06:13:12.415Z,1006.34
2019-01-24T06:14:12.630Z,1006.38
2019-01-24T06:15:12.803Z,1006.40
2019-01-24T06:16:12.938Z,1006.44
2019-01-24T06:17:13.117Z,1006.43
2019-01-24T06:18:13.292Z,1006.51
2019-01-24T06:19:13.454Z,1006.49
2019-01-24T06:20:13.643Z,1006.53
2019-01-24T06:21:13.812Z,1006.51
2019-01-24T06:22:13.963Z,1006.56
2019-01-24T06:23:14.288Z,1006.50
2019-01-24T06:24:14.324Z,1006.52
2019-01-24T06:25:14.513Z,1006.62
2019-01-24T06:26:14.661Z,1006.61
2019-01-24T06:27:14.829Z,1006.58
2019-01-24T06:28:15.032Z,1006.60
2019-01-24T06:29:15.193Z,1006.61
2019-01-24T06:30:15.382Z,1006.66
2019-01-24T06:31:15.618Z,1006.64
2019-01-24T06:32:15.701Z,1006.63
2019-01-24T06:33:15.901Z,1006.64
2019-01-24T06:34:16.044Z,1006.67
2019-01-24T06:35:16.233Z,1006.62
2019-01-24T06:36:16.405Z,1006.69
2019-01-24T06:37:16.537Z,1006.64
2019-01-24T06:38:16.731Z,1006.65
2019-01-24T06:39:16.976Z,1006.66
2019-01-24T06:40:17.061Z,1006.68
2019-01-24T06:41:17.237Z,1006.77
2019-01-24T06:42:17.389Z,1006.72
2019-01-24T06:43:17.564Z,1006.74
2019-01-24T06:44:17.728Z,1006.74
2019-01-24T06:45:17.916Z,1006.77
2019-01-24T06:46:18.077Z,1006.76
2019-01-24T06:47:18.288Z,1006.77
2019-01-24T06:48:18.383Z,1006.79
2019-01-24T06:49:18.544Z,1006.78
2019-01-24T06:50:18.745Z,1006.81
2019-01-24T06:51:18.912Z,1006.77
2019-01-24T06:52:19.078Z,1006.78
2019-01-24T06:53:19.264Z,1006.85
2019-01-24T06:54:19.416Z,1006.83
2019-01-24T06:55:19.616Z,1006.86
2019-01-24T06:56:19.839Z,1006.84
2019-01-24T06:57:20.157Z,1006.89
2019-01-24T06:58:20.113Z,1006.87
2019-01-24T06:59:20.275Z,1006.90
2019-01-24T07:00:20.436Z,1006.94
2019-01-24T07:01:20.620Z,1006.95
2019-01-24T07:02:20.787Z,1007.01
2019-01-24T07:03:20.975Z,1007.01
2019-01-24T07:04:21.209Z,1006.98
2019-01-24T07:05:21.383Z,1007.00
2019-01-24T07:06:21.482Z,1007.05
2019-01-24T07:07:21.633Z,1007.01
2019-01-24T07:08:21.814Z,1007.04
2019-01-24T07:09:21.959Z,1006.99
2019-01-24T07:10:22.160Z,1007.00
2019-01-24T07:11:22.323Z,1007.02
2019-01-24T07:12:22.593Z,1007.03
2019-01-24T07:13:22.660Z,1007.04
2019-01-24T07:14:22.814Z,1007.06
2019-01-24T07:15:23.004Z,1007.07
2019-01-24T07:16:23.157Z,1007.09
2019-01-24T07:17:23.323Z,1007.12
2019-01-24T07:18:23.509Z,1007.09
2019-01-24T07:19:23.662Z,1007.04
2019-01-24T07:20:23.897Z,1007.11
2019-01-24T07:21:24.001Z,1007.10
2019-01-24T07:22:24.145Z,1007.10
2019-01-24T07:23:24.349Z,1007.08
2019-01-24T07:24:24.533Z,1007.06
2019-01-24T07:25:24.668Z,1007.05
2019-01-24T07:26:24.853Z,1007.11
2019-01-24T07:27:25.005Z,1007.03
2019-01-24T07:28:25.211Z,1007.08
2019-01-24T07:29:25.339Z,1007.10
2019-01-24T07:30:25.525Z,1007.06
2019-01-24T07:31:25.727Z,1007.10
2019-01-24T07:32:25.868Z,1007.11
2019-01-24T07:33:26.063Z,1007.11
2019-01-24T07:34:26.191Z,1007.08
2019-01-24T07:35:26.387Z,1007.06
2019-01-24T07:36:26.632Z,1007.07
2019-01-24T07:37:26.801Z,1007.10
2019-01-24T07:38:26.902Z,1007.09
2019-01-24T07:39:27.050Z,1007.11
2019-01-24T07:40:27.237Z,1007.19
2019-01-24T07:41:27.431Z,1007.08
2019-01-24T07:42:27.582Z,1007.15
2019-01-24T07:43:27.763Z,1007.20
2019-01-24T07:44:27.914Z,1007.24
2019-01-24T07:45:28.197Z,1007.25
2019-01-24T07:46:28.292Z,1007.24
2019-01-24T07:47:28.430Z,1007.31
2019-01-24T07:48:28.610Z,1007.28
2019-01-24T07:49:28.753Z,1007.31
2019-01-24T07:50:28.923Z,1007.30
2019-01-24T07:51:29.131Z,1007.31
2019-01-24T07:52:29.280Z,1007.38
2019-01-24T07:53:29.538Z,1007.37
2019-01-24T07:54:29.598Z,1007.37
2019-01-24T07:55:29.752Z,1007.39
2019-01-24T07:56:29.969Z,1007.38
2019-01-24T07:57:30.130Z,1007.48
2019-01-24T07:58:30.299Z,1007.41
2019-01-24T07:59:30.453Z,1007.47
2019-01-24T08:00:30.626Z,1007.47
2019-01-24T08:01:30.854Z,1007.46
2019-01-24T08:02:30.961Z,1007.50
2019-01-24T08:03:31.136Z,1007.49
2019-01-24T08:04:31.282Z,1007.54
2019-01-24T08:05:31.452Z,1007.57
2019-01-24T08:06:31.640Z,1007.56
2019-01-24T08:07:31.799Z,1007.50
2019-01-24T08:08:31.984Z,1007.45
2019-01-24T08:09:32.185Z,1007.48
2019-01-24T08:10:32.350Z,1007.43
2019-01-24T08:11:32.512Z,1007.36
2019-01-24T08:12:32.667Z,1007.43
2019-01-24T08:13:32.856Z,1007.40
2019-01-24T08:14:33.018Z,1007.35
2019-01-24T08:15:33.191Z,1007.37
2019-01-24T08:16:33.378Z,1007.40
2019-01-24T08:17:33.555Z,1007.39
2019-01-24T08:18:33.800Z,1007.42
2019-01-24T08:19:33.865Z,1007.45
2019-01-24T08:20:34.036Z,1007.46
2019-01-24T08:21:34.223Z,1007.39
2019-01-24T08:22:34.385Z,1007.48
2019-01-24T08:23:34.545Z,1007.48
2019-01-24T08:24:34.691Z,1007.45
2019-01-24T08:25:34.878Z,1007.47
2019-01-24T08:26:35.231Z,1007.45
2019-01-24T08:27:35.218Z,1007.50
2019-01-24T08:28:35.374Z,1007.45
2019-01-24T08:29:35.558Z,1007.48
2019-01-24T08:30:35.746Z,1007.49
2019-01-24T08:31:35.948Z,1007.43
2019-01-24T08:32:36.121Z,1007.34
2019-01-24T08:33:36.253Z,1007.40
2019-01-24T08:34:36.464Z,1007.39
2019-01-24T08:35:36.824Z,1007.42
2019-01-24T08:36:36.794Z,1007.45
2019-01-24T08:37:36.955Z,1007.45
2019-01-24T08:38:37.110Z,1007.49
2019-01-24T08:39:37.296Z,1007.53
2019-01-24T08:40:37.467Z,1007.56
2019-01-24T08:41:37.637Z,1007.57
2019-01-24T08:42:37.886Z,1007.54
2019-01-24T08:43:37.951Z,1007.56
2019-01-24T08:44:38.143Z,1007.55
2019-01-24T08:45:38.300Z,1007.56
2019-01-24T08:46:38.478Z,1007.58
2019-01-24T08:47:38.661Z,1007.64
2019-01-24T08:48:38.832Z,1007.57
2019-01-24T08:49:39.021Z,1007.60
2019-01-24T08:50:39.194Z,1007.62
2019-01-24T08:51:39.429Z,1007.63
2019-01-24T08:52:39.520Z,1007.58
2019-01-24T08:53:39.702Z,1007.56
2019-01-24T08:54:39.881Z,1007.63
2019-01-24T08:55:40.031Z,1007.73
2019-01-24T08:56:40.234Z,1007.55
2019-01-24T08:57:40.356Z,1007.57
2019-01-24T08:58:40.531Z,1007.56
2019-01-24T08:59:40.834Z,1007.60
2019-01-24T09:00:40.880Z,1007.65
2019-01-24T09:01:41.080Z,1007.59
2019-01-24T09:02:41.195Z,1007.56
2019-01-24T09:03:41.386Z,1007.64
2019-01-24T09:04:41.588Z,1007.60
2019-01-24T09:05:41.740Z,1007.58
2019-01-24T09:06:41.933Z,1007.59
2019-01-24T09:07:42.174Z,1007.62
2019-01-24T09:08:42.246Z,1007.59
2019-01-24T09:09:42.446Z,1007.62
2019-01-24T09:10:42.596Z,1007.56
2019-01-24T09:11:42.787Z,1007.60
2019-01-24T09:12:42.938Z,1007.58
2019-01-24T09:13:43.123Z,1007.63
2019-01-24T09:14:43.279Z,1007.63
2019-01-24T09:15:43.481Z,1007.59
2019-01-24T09:16:43.643Z,1007.61
2019-01-24T09:17:43.780Z,1007.67
2019-01-24T09:18:43.972Z,1007.65
2019-01-24T09:19:44.131Z,1007.64
2019-01-24T09:20:44.263Z,1007.61
2019-01-24T09:21:44.464Z,1007.64
2019-01-24T09:22:44.651Z,1007.66
2019-01-24T09:23:44.882Z,1007.67
2019-01-24T09:24:44.994Z,1007.63
2019-01-24T09:25:45.126Z,1007.66
2019-01-24T09:26:45.356Z,1007.59
2019-01-24T09:27:45.499Z,1007.57
2019-01-24T09:28:45.642Z,1007.59
2019-01-24T09:29:45.839Z,1007.66
2019-01-24T09:30:45.990Z,1007.61
2019-01-24T09:31:46.162Z,1007.62
2019-01-24T09:32:46.486Z,1007.62
2019-01-24T09:33:46.509Z,1007.62
2019-01-24T09:34:46.692Z,1007.61
2019-01-24T09:35:46.844Z,1007.63
2019-01-24T09:36:47.013Z,1007.63
2019-01-24T09:37:47.201Z,1007.61
2019-01-24T09:38:47.386Z,1007.59
2019-01-24T09:39:47.569Z,1007.60
2019-01-24T09:40:47.869Z,1007.65
2019-01-24T09:41:47.891Z,1007.65
2019-01-24T09:42:48.097Z,1007.64
2019-01-24T09:43:48.259Z,1007.69
2019-01-24T09:44:48.441Z,1007.71
2019-01-24T09:45:48.596Z,1007.71
2019-01-24T09:46:48.768Z,1007.73
2019-01-24T09:47:48.941Z,1007.71
2019-01-24T09:48:49.179Z,1007.77
2019-01-24T09:49:49.286Z,1007.71
2019-01-24T09:50:49.445Z,1007.75
2019-01-24T09:51:49.635Z,1007.78
2019-01-24T09:52:49.802Z,1007.70
2019-01-24T09:53:49.965Z,1007.73
2019-01-24T09:54:50.151Z,1007.75
2019-01-24T09:55:50.303Z,1007.75
2019-01-24T09:56:50.543Z,1007.74
2019-01-24T09:57:50.644Z,1007.75
2019-01-24T09:58:50.808Z,1007.79
2019-01-24T09:59:50.991Z,1007.78
2019-01-24T10:00:51.150Z,1007.81
2019-01-24T10:01:51.325Z,1007.75
2019-01-24T10:02:51.521Z,1007.81
2019-01-24T10:03:51.679Z,1007.80
2019-01-24T10:04:51.864Z,1007.82
2019-01-24T10:05:52.071Z,1007.74
2019-01-24T10:06:52.196Z,1007.83
2019-01-24T10:07:52.385Z,1007.76
2019-01-24T10:08:52.543Z,1007.75
2019-01-24T10:09:52.716Z,1007.76
2019-01-24T10:10:52.858Z,1007.76
2019-01-24T10:11:53.045Z,1007.78
2019-01-24T10:12:53.502Z,1007.80
2019-01-24T10:13:53.518Z,1007.82
2019-01-24T10:14:53.577Z,1007.79
2019-01-24T10:15:53.707Z,1007.82
2019-01-24T10:16:53.897Z,1007.84
2019-01-24T10:17:54.073Z,1007.81
2019-01-24T10:18:54.238Z,1007.78
2019-01-24T10:19:54.413Z,1007.81
2019-01-24T10:20:54.571Z,1007.82
2019-01-24T10:21:54.860Z,1007.78
2019-01-24T10:22:54.915Z,1007.79
2019-01-24T10:23:57.997Z,1007.81
2019-01-24T10:24:55.261Z,1007.77
2019-01-24T10:25:55.413Z,1007.76
2019-01-24T10:26:55.586Z,1007.79
2019-01-24T10:27:55.766Z,1007.80
2019-01-24T10:28:55.937Z,1007.84
2019-01-24T10:29:56.199Z,1007.89
2019-01-24T10:30:56.256Z,1007.84
2019-01-24T10:31:56.433Z,1007.84
2019-01-24T10:32:56.602Z,1007.89
2019-01-24T10:33:56.774Z,1007.89
2019-01-24T10:34:56.956Z,1007.94
2019-01-24T10:35:57.111Z,1007.94
2019-01-24T10:36:57.280Z,1007.92
2019-01-24T10:37:57.534Z,1007.98
2019-01-24T10:38:57.596Z,1007.94
2019-01-24T10:39:57.791Z,1007.95
2019-01-24T10:40:57.939Z,1007.98
2019-01-24T10:41:58.119Z,1007.96
2019-01-24T10:42:58.310Z,1008.02
2019-01-24T10:43:58.477Z,1007.97
2019-01-24T10:44:58.627Z,1007.94
2019-01-24T10:45:58.826Z,1008.05
2019-01-24T10:46:59.010Z,1008.03
2019-01-24T10:47:59.167Z,1008.04
2019-01-24T10:48:59.390Z,1008.03
2019-01-24T10:49:59.466Z,1008.03
2019-01-24T10:50:59.648Z,1007.97
2019-01-24T10:51:59.820Z,1008.00
2019-01-24T10:53:00.026Z,1007.98
2019-01-24T10:54:00.164Z,1008.00
2019-01-24T10:55:00.458Z,1007.96
2019-01-24T10:56:00.513Z,1007.96
2019-01-24T10:57:00.744Z,1007.97
2019-01-24T10:58:00.906Z,1007.94
2019-01-24T10:59:01.021Z,1008.01
2019-01-24T11:00:01.186Z,1007.96
2019-01-24T11:01:01.364Z,1007.95
2019-01-24T11:02:02.876Z,1007.98
2019-01-24T11:03:02.064Z,1007.92
2019-01-24T11:04:01.907Z,1007.90
2019-01-24T11:05:02.054Z,1007.89
2019-01-24T11:06:02.227Z,1007.91
2019-01-24T11:07:02.392Z,1007.91
2019-01-24T11:08:02.588Z,1007.89
2019-01-24T11:09:02.760Z,1007.91
2019-01-24T11:10:02.916Z,1007.94
2019-01-24T11:11:03.151Z,1007.92
2019-01-24T11:12:03.341Z,1007.89
2019-01-24T11:13:03.558Z,1007.89
2019-01-24T11:14:03.751Z,1007.90
2019-01-24T11:15:03.909Z,1007.87
2019-01-24T11:16:04.105Z,1007.86
2019-01-24T11:17:04.255Z,1007.97
2019-01-24T11:18:04.448Z,1007.93
2019-01-24T11:19:04.667Z,1007.96
2019-01-24T11:20:04.782Z,1008.03
2019-01-24T11:21:04.985Z,1007.93
2019-01-24T11:22:05.143Z,1007.99
2019-01-24T11:23:05.339Z,1007.94
2019-01-24T11:24:05.533Z,1007.93
2019-01-24T11:25:05.669Z,1007.95
2019-01-24T11:26:05.891Z,1008.04
2019-01-24T11:27:06.049Z,1007.98
2019-01-24T11:28:06.319Z,1008.04
2019-01-24T11:29:06.401Z,1008.09
2019-01-24T11:30:06.564Z,1007.99
2019-01-24T11:31:06.757Z,1008.03
2019-01-24T11:32:06.917Z,1008.04
2019-01-24T11:33:07.110Z,1008.04
2019-01-24T11:34:07.328Z,1008.06
2019-01-24T11:35:07.430Z,1007.96
2019-01-24T11:36:07.746Z,1007.98
2019-01-24T11:37:07.808Z,1007.96
2019-01-24T11:38:08.000Z,1008.02
2019-01-24T11:39:08.180Z,1007.97
2019-01-24T11:40:08.334Z,1007.96
2019-01-24T11:41:08.535Z,1007.95
2019-01-24T11:42:08.695Z,1007.97
2019-01-24T11:43:08.890Z,1007.92
2019-01-24T11:44:09.134Z,1007.97
2019-01-24T11:45:09.158Z,1008.00
2019-01-24T11:46:09.328Z,1008.01
2019-01-24T11:47:09.499Z,1007.97
2019-01-24T11:48:09.675Z,1008.04
2019-01-24T11:49:09.867Z,1008.01
2019-01-24T11:50:10.020Z,1008.01
2019-01-24T11:51:10.438Z,1007.99
2019-01-24T11:52:10.621Z,1007.94
2019-01-24T11:53:10.596Z,1008.02
2019-01-24T11:54:10.761Z,1008.04
2019-01-24T11:55:10.951Z,1008.03
2019-01-24T11:56:11.107Z,1008.09
2019-01-24T11:57:11.264Z,1008.04
2019-01-24T11:58:11.482Z,1008.10
2019-01-24T11:59:11.644Z,1008.07
2019-01-24T12:00:11.878Z,1008.16
2019-01-24T12:01:12.019Z,1008.18
2019-01-24T12:02:12.163Z,1008.14
2019-01-24T12:03:12.364Z,1008.19
2019-01-24T12:04:12.535Z,1008.14
2019-01-24T12:05:12.732Z,1008.16
2019-01-24T12:06:12.907Z,1008.14
2019-01-24T12:07:13.060Z,1008.09